createdAt,value
2023-04-08T00:00:46.244Z,50.25
2023-04-08T00:06:48.891Z,45.75
2023-04-08T00:12:57.036Z,45.00
2023-04-08T00:18:59.192Z,48.00
2023-04-08T00:25:02.134Z,48.25
2023-04-08T00:31:05.057Z,51.75
2023-04-08T00:37:07.516Z,47.50
2023-04-08T00:43:09.671Z,49.50
2023-04-08T00:49:13.005Z,52.00
2023-04-08T00:55:18.056Z,48.25
2023-04-08T01:01:32.149Z,52.25
2023-04-08T01:07:41.825Z,49.50
2023-04-08T01:13:46.535Z,47.75
2023-04-08T01:19:50.967Z,50.50
2023-04-08T01:25:54.516Z,45.75
2023-04-08T01:31:58.091Z,52.50
2023-04-08T01:38:05.878Z,48.00
2023-04-08T01:44:10.551Z,49.50
2023-04-08T01:50:14.023Z,46.75
2023-04-08T01:56:17.545Z,50.75
2023-04-08T02:02:25.399Z,51.50
2023-04-08T02:08:27.804Z,52.25
2023-04-08T02:14:30.429Z,51.25
2023-04-08T02:20:48.214Z,49.00
2023-04-08T02:26:52.374Z,52.00
2023-04-08T02:32:54.994Z,52.00
2023-04-08T02:38:59.088Z,53.50
2023-04-08T02:45:01.259Z,49.75
2023-04-08T02:51:04.414Z,51.25
2023-04-08T02:57:08.254Z,54.25
2023-04-08T03:03:11.151Z,52.25
2023-04-08T03:09:14.438Z,52.75
2023-04-08T03:15:17.297Z,57.00
2023-04-08T03:21:19.553Z,50.50
2023-04-08T03:27:22.874Z,54.25
2023-04-08T03:33:25.569Z,56.75
2023-04-08T03:39:28.938Z,60.75
2023-04-08T03:45:32.340Z,55.25
2023-04-08T03:51:34.585Z,61.00
2023-04-08T03:57:36.837Z,59.00
2023-04-08T04:03:39.077Z,59.25
2023-04-08T04:09:41.642Z,57.75
2023-04-08T04:15:45.792Z,54.00
